Time;durP1;ratioP1;P1;durP2;ratioP2;P2;SDS_P1;SDS_P2;PMS_P1;PMS_P2;Temp;Humidity;BMP_temperature;BMP_pressure;BME280_temperature;BME280_humidity;BME280_pressure;Samples;Min_cycle;Max_cycle;Signal;HPM_P1;HPM_P2
2022/05/23 00:00:51;;;;;;;1.08;1.02;;;;;;;14.55;80.88;97567.25;5045131;28;20330;-71
2022/05/23 00:03:17;;;;;;;2.25;1.50;;;;;;;14.26;81.54;97562.59;5045099;28;20021;-71
2022/05/23 00:05:42;;;;;;;2.47;1.48;;;;;;;14.17;81.09;97549.78;5053529;28;20024;-71
2022/05/23 00:08:07;;;;;;;2.42;1.30;;;;;;;14.22;81.22;97553.09;5045026;28;20063;-71
2022/05/23 00:10:33;;;;;;;2.20;1.30;;;;;;;14.22;82.67;97547.78;5044993;28;20022;-71
2022/05/23 00:12:58;;;;;;;4.32;1.70;;;;;;;14.13;83.55;97527.09;5061716;28;20092;-71
2022/05/23 00:15:24;;;;;;;2.45;1.65;;;;;;;14.27;83.48;97527.28;5044889;28;20388;-71
2022/05/23 00:17:49;;;;;;;4.72;1.75;;;;;;;14.31;83.00;97511.16;5051844;28;20021;-71
2022/05/23 00:20:19;;;;;;;1.40;1.30;;;;;;;14.45;82.71;97518.38;5062564;28;20029;-71
2022/05/23 00:22:45;;;;;;;1.88;1.40;;;;;;;14.50;82.94;97505.75;5044757;28;20030;-71
2022/05/23 00:25:11;;;;;;;6.38;1.63;;;;;;;14.46;82.84;97493.63;5061018;28;20124;-71
2022/05/23 00:27:42;;;;;;;2.08;1.38;;;;;;;14.51;83.27;97487.16;5062460;28;20033;-71
2022/05/23 00:30:11;;;;;;;1.70;1.30;;;;;;;14.47;84.32;97480.31;5056837;28;20023;-71
2022/05/23 00:35:20;;;;;;;2.63;1.50;;;;;;;14.45;87.01;97470.72;5059102;28;20032;-71
2022/05/23 00:37:55;;;;;;;2.88;1.45;;;;;;;14.28;86.83;97478.69;5046091;28;20088;-71
2022/05/23 00:40:30;;;;;;;2.42;1.45;;;;;;;14.24;87.22;97478.00;5044722;28;20186;-71
2022/05/23 00:43:13;;;;;;;3.15;1.48;;;;;;;14.12;87.90;97469.81;5052604;28;20060;-71
2022/05/23 00:45:39;;;;;;;2.45;1.80;;;;;;;14.21;88.12;97472.00;5044370;28;20037;-71
2022/05/23 00:48:05;;;;;;;2.50;1.63;;;;;;;14.21;88.02;97478.13;5044137;28;20072;-71
2022/05/23 00:50:34;;;;;;;4.32;1.90;;;;;;;14.08;88.26;97481.50;5059817;28;20337;-71
2022/05/23 00:53:01;;;;;;;1.55;1.40;;;;;;;14.09;87.15;97483.19;5044320;28;20075;-71
2022/05/23 00:55:31;;;;;;;2.65;1.52;;;;;;;13.97;87.70;97479.41;5052625;28;20096;-71
2022/05/23 00:58:03;;;;;;;2.90;1.60;;;;;;;13.85;89.13;97468.56;5044189;28;20039;-71
2022/05/23 01:00:28;;;;;;;;;;;;;;;13.93;89.15;97469.91;5045480;28;20225;-71
2022/05/23 01:03:00;;;;;;;3.75;1.52;;;;;;;14.01;89.08;97480.06;5059793;28;19909;-71
2022/05/23 01:05:26;;;;;;;3.42;1.58;;;;;;;13.97;89.84;97462.66;5044177;28;20025;-71
2022/05/23 01:07:52;;;;;;;4.18;1.40;;;;;;;13.98;90.29;97457.28;5054547;28;20039;-71
2022/05/23 01:10:18;;;;;;;2.30;1.80;;;;;;;14.01;90.87;97457.13;5058659;28;20041;-71
2022/05/23 01:12:43;;;;;;;4.07;1.90;;;;;;;14.06;90.31;97456.91;5045110;28;20217;-71
2022/05/23 01:15:23;;;;;;;3.22;1.52;;;;;;;14.35;88.93;97448.31;5062912;28;20039;-71
2022/05/23 01:17:49;;;;;;;2.20;1.45;;;;;;;14.46;88.06;97451.28;5056007;28;20032;-71
2022/05/23 01:20:15;;;;;;;4.95;1.98;;;;;;;14.60;87.28;97443.44;5043911;28;20025;-71
2022/05/23 01:22:54;;;;;;;2.10;1.40;;;;;;;14.41;86.10;97440.06;5062239;28;20033;-71
2022/05/23 01:25:29;;;;;;;1.30;1.20;;;;;;;14.46;87.13;97443.31;5048252;28;20021;-71
2022/05/23 01:27:55;;;;;;;1.75;1.45;;;;;;;14.29;87.80;97438.06;5043782;28;20325;-71
2022/05/23 01:30:21;;;;;;;4.63;1.80;;;;;;;14.35;88.41;97435.09;5049431;28;20024;-71
2022/05/23 01:32:46;;;;;;;3.13;1.75;;;;;;;14.26;89.08;97427.63;5063187;28;20071;-71
2022/05/23 01:35:12;;;;;;;2.28;1.45;;;;;;;14.34;89.08;97425.44;5047045;28;20025;-71
2022/05/23 01:37:37;;;;;;;3.08;1.60;;;;;;;14.50;86.74;97406.03;5044902;28;20025;-71
2022/05/23 01:40:07;;;;;;;2.10;1.60;;;;;;;14.45;88.86;97404.53;5043754;28;20206;-71
2022/05/23 01:42:32;;;;;;;2.15;1.40;;;;;;;14.50;88.53;97400.72;5048542;28;20224;-71
2022/05/23 01:44:57;;;;;;;5.03;1.75;;;;;;;14.50;88.94;97397.22;5054651;28;20092;-71
2022/05/23 01:47:23;;;;;;;1.92;1.30;;;;;;;14.61;88.26;97402.75;5050464;28;20053;-71
2022/05/23 01:49:48;;;;;;;2.03;1.50;;;;;;;14.87;85.50;97410.13;5050247;28;20303;-71
2022/05/23 01:52:14;;;;;;;2.83;1.42;;;;;;;15.03;84.89;97411.00;5055727;28;20321;-71
2022/05/23 01:54:40;;;;;;;1.45;1.13;;;;;;;15.13;85.08;97398.94;5047492;28;20079;-71
2022/05/23 01:57:07;;;;;;;1.58;1.10;;;;;;;15.27;84.15;97393.69;5047489;28;20021;-71
2022/05/23 02:02:17;;;;;;;4.30;1.38;;;;;;;15.56;81.42;97395.53;5065080;28;20339;-71
2022/05/23 02:04:45;;;;;;;3.70;1.40;;;;;;;15.40;83.16;97389.41;5066523;28;20021;-71
2022/05/23 02:07:11;;;;;;;2.28;1.30;;;;;;;15.51;81.31;97387.00;5061973;28;20074;-71
2022/05/23 02:09:38;;;;;;;2.72;1.30;;;;;;;15.57;80.66;97381.34;5047280;28;20048;-71
2022/05/23 02:12:05;;;;;;;3.15;1.55;;;;;;;15.74;79.04;97389.16;5047250;28;20253;-71
2022/05/23 02:14:31;;;;;;;2.92;1.50;;;;;;;15.57;81.23;97391.09;5047057;28;20044;-71
2022/05/23 02:16:56;;;;;;;1.25;1.13;;;;;;;15.46;83.38;97381.09;5047165;28;20025;-71
2022/05/23 02:19:21;;;;;;;5.75;1.63;;;;;;;15.32;84.98;97391.63;5047363;28;20100;-71
2022/05/23 02:21:47;;;;;;;2.53;1.70;;;;;;;15.22;86.73;97411.63;5047093;28;20021;-71
2022/05/23 02:24:12;;;;;;;3.53;1.45;;;;;;;15.18;89.37;97426.00;5047167;28;20033;-71
2022/05/23 02:26:38;;;;;;;3.83;1.52;;;;;;;15.32;88.33;97439.34;5047206;28;20100;-71
2022/05/23 02:29:04;;;;;;;3.35;1.90;;;;;;;15.51;86.93;97466.56;5046891;28;20028;-71
2022/05/23 02:31:30;;;;;;;4.07;1.38;;;;;;;15.66;87.05;97508.09;5046845;28;20029;-71
2022/05/23 02:33:55;;;;;;;1.83;1.55;;;;;;;15.76;86.34;97546.41;5046728;28;20044;-71
2022/05/23 02:36:21;;;;;;;3.65;1.60;;;;;;;15.79;86.89;97570.13;5046817;28;20206;-71
2022/05/23 02:38:46;;;;;;;6.40;1.67;;;;;;;15.87;85.26;97590.91;5046738;28;20029;-71
2022/05/23 02:41:12;;;;;;;3.13;1.95;;;;;;;15.83;85.13;97616.78;5046674;28;20103;-71
2022/05/23 02:43:37;;;;;;;2.97;1.80;;;;;;;15.85;85.82;97645.91;5046627;28;20029;-71
2022/05/23 02:46:03;;;;;;;3.47;1.77;;;;;;;15.68;86.55;97628.25;5046538;28;20063;-71
2022/05/23 02:48:29;;;;;;;3.78;1.80;;;;;;;15.58;88.64;97624.41;5046419;28;20085;-71
2022/05/23 02:50:54;;;;;;;5.22;1.98;;;;;;;15.50;89.34;97623.94;5046491;28;20076;-71
2022/05/23 02:53:20;;;;;;;2.67;2.00;;;;;;;15.46;90.54;97659.53;5046470;28;20029;-72
2022/05/23 02:55:45;;;;;;;4.32;1.95;;;;;;;15.45;89.93;97652.53;5046292;28;20042;-71
2022/05/23 02:58:11;;;;;;;2.55;1.70;;;;;;;15.38;90.35;97659.13;5045582;28;20059;-71
2022/05/23 03:00:38;;;;;;;4.47;2.45;;;;;;;15.29;91.46;97658.69;5045945;28;20043;-72
2022/05/23 03:03:04;;;;;;;7.00;2.05;;;;;;;15.33;92.13;97653.16;5046221;28;20088;-72
2022/05/23 03:05:32;;;;;;;4.45;2.08;;;;;;;15.34;92.56;97644.25;5046288;28;20313;-71
2022/05/23 03:07:58;;;;;;;4.10;2.00;;;;;;;15.35;93.37;97640.69;5046125;28;20025;-71
2022/05/23 03:10:25;;;;;;;3.08;2.10;;;;;;;15.06;93.44;97646.66;5046109;28;20256;-72
2022/05/23 03:12:51;;;;;;;4.63;2.67;;;;;;;14.84;95.19;97651.38;5046123;28;20036;-72
2022/05/23 03:15:16;;;;;;;3.58;2.20;;;;;;;14.86;95.74;97647.72;5045978;28;20048;-71
2022/05/23 03:17:42;;;;;;;11.52;3.17;;;;;;;14.59;98.46;97635.03;5045997;28;20025;-71
2022/05/23 03:20:09;;;;;;;11.55;3.22;;;;;;;14.48;100.00;97645.28;5060218;28;20025;-71
2022/05/23 03:28:03;;;;;;;3.35;2.67;;;;;;;14.36;100.00;97630.88;5045865;28;20032;-71
2022/05/23 03:30:29;;;;;;;6.70;3.10;;;;;;;14.28;100.00;97637.50;5045789;28;20021;-72
2022/05/23 03:32:57;;;;;;;16.60;3.30;;;;;;;14.31;100.00;97640.00;5054307;28;20064;-71
2022/05/23 03:35:23;;;;;;;4.28;2.92;;;;;;;14.38;100.00;97641.41;5045836;28;20048;-72
2022/05/23 03:37:49;;;;;;;6.00;2.95;;;;;;;14.33;100.00;97640.78;5050007;28;20021;-72
2022/05/23 03:40:14;;;;;;;4.72;2.78;;;;;;;14.38;100.00;97638.75;5056195;28;20025;-72
2022/05/23 03:42:41;;;;;;;7.18;3.15;;;;;;;14.35;100.00;97639.78;5055412;28;20028;-71
2022/05/23 03:45:07;;;;;;;5.32;3.05;;;;;;;14.33;100.00;97620.44;5062477;28;20028;-72
2022/05/23 03:47:33;;;;;;;10.43;3.15;;;;;;;14.25;100.00;97612.06;5055026;28;20216;-71
2022/05/23 03:49:58;;;;;;;5.20;2.63;;;;;;;14.25;100.00;97584.72;5060877;28;20037;-72
2022/05/23 03:52:24;;;;;;;6.88;2.80;;;;;;;14.18;100.00;97567.41;5055614;28;20048;-71
2022/05/23 03:54:49;;;;;;;11.45;3.15;;;;;;;14.16;100.00;97537.50;5052857;28;20274;-72
2022/05/23 03:57:15;;;;;;;7.10;3.15;;;;;;;14.15;100.00;97512.88;5051810;28;20085;-72
2022/05/23 03:59:40;;;;;;;8.10;3.22;;;;;;;14.12;100.00;97498.91;5044340;28;20035;-72
2022/05/23 04:02:05;;;;;;;3.83;2.80;;;;;;;14.16;100.00;97477.53;5045014;28;20321;-71
2022/05/23 04:04:32;;;;;;;4.40;2.95;;;;;;;14.13;100.00;97458.28;5045136;28;20025;-71
2022/05/23 04:07:02;;;;;;;6.40;3.38;;;;;;;14.05;100.00;97431.38;5045111;28;20029;-71
2022/05/23 04:09:29;;;;;;;5.82;3.53;;;;;;;14.06;100.00;97415.44;5061406;28;20029;-71
2022/05/23 04:11:55;;;;;;;7.43;3.28;;;;;;;14.12;100.00;97395.72;5064926;28;20087;-71
2022/05/23 04:14:20;;;;;;;4.38;3.10;;;;;;;14.26;100.00;97377.34;5064803;28;20031;-71
2022/05/23 04:16:48;;;;;;;4.78;2.97;;;;;;;14.16;100.00;97358.44;5065111;28;20017;-71
2022/05/23 04:19:15;;;;;;;6.07;3.22;;;;;;;14.05;100.00;97370.53;5064798;28;20048;-71
2022/05/23 04:21:42;;;;;;;7.00;3.15;;;;;;;14.13;100.00;97376.25;5064734;28;20032;-71
2022/05/23 04:24:09;;;;;;;7.47;3.47;;;;;;;14.13;100.00;97360.38;5064734;28;20024;-71
2022/05/23 04:26:35;;;;;;;5.40;3.08;;;;;;;14.24;100.00;97344.84;5064682;28;20029;-71
2022/05/23 04:29:01;;;;;;;4.63;2.85;;;;;;;14.32;100.00;97350.56;5064587;28;20131;-71
2022/05/23 04:31:27;;;;;;;7.47;3.78;;;;;;;14.29;100.00;97348.94;5064541;28;20036;-71
2022/05/23 04:36:36;;;;;;;7.05;2.70;;;;;;;14.34;100.00;97306.34;5064494;28;20336;-71
2022/05/23 04:39:02;;;;;;;4.38;3.35;;;;;;;14.15;100.00;97260.63;5064473;28;20020;-71
2022/05/23 04:41:28;;;;;;;4.50;3.00;;;;;;;14.09;100.00;97210.69;5064381;28;20021;-71
2022/05/23 04:43:54;;;;;;;4.60;2.85;;;;;;;14.22;100.00;97195.84;5064328;28;20033;-71
2022/05/23 04:46:19;;;;;;;4.78;3.42;;;;;;;14.38;100.00;97231.13;5064285;28;20030;-71
2022/05/23 04:51:28;;;;;;;5.32;3.35;;;;;;;14.45;100.00;97254.50;5064277;28;20067;-71
2022/05/23 04:53:55;;;;;;;5.50;2.70;;;;;;;14.55;100.00;97255.69;5064173;28;20317;-71
2022/05/23 04:56:22;;;;;;;4.20;2.67;;;;;;;14.63;100.00;97258.78;5064337;28;20044;-71
2022/05/23 04:58:47;;;;;;;3.90;2.95;;;;;;;14.70;100.00;97264.56;5064222;28;20221;-71
2022/05/23 05:01:13;;;;;;;5.60;2.72;;;;;;;14.92;100.00;97265.03;5064076;28;20021;-71
2022/05/23 05:03:38;;;;;;;6.88;3.20;;;;;;;14.89;100.00;97249.31;5062845;28;20096;-71
2022/05/23 05:06:04;;;;;;;9.80;3.03;;;;;;;14.78;100.00;97251.75;5064050;28;20327;-71
2022/05/23 05:08:30;;;;;;;4.30;2.70;;;;;;;14.81;100.00;97262.16;5063971;28;20032;-71
2022/05/23 05:10:57;;;;;;;7.70;2.60;;;;;;;14.73;100.00;97290.84;5063952;28;20025;-71
2022/05/23 05:13:24;;;;;;;5.05;2.40;;;;;;;14.78;100.00;97288.81;5064197;28;20048;-71
2022/05/23 05:15:49;;;;;;;5.22;2.45;;;;;;;14.86;100.00;97294.50;5063888;28;20021;-71
2022/05/23 05:18:15;;;;;;;5.38;2.83;;;;;;;14.94;100.00;97316.13;5063878;28;20027;-71
2022/05/23 05:20:40;;;;;;;4.30;2.50;;;;;;;14.92;100.00;97312.72;5063881;28;20130;-71
2022/05/23 05:23:06;;;;;;;3.83;2.65;;;;;;;14.95;100.00;97301.94;5063134;28;20025;-71
2022/05/23 05:25:31;;;;;;;4.10;2.58;;;;;;;15.01;99.70;97306.88;5063820;28;20021;-71
2022/05/23 05:27:57;;;;;;;8.15;2.80;;;;;;;15.04;100.00;97290.81;5062647;28;20388;-71
2022/05/23 05:30:23;;;;;;;4.45;2.55;;;;;;;15.21;100.00;97284.53;5063797;28;20080;-71
2022/05/23 05:32:59;;;;;;;3.92;2.28;;;;;;;15.37;99.87;97296.81;5063815;28;20032;-71
2022/05/23 05:35:37;;;;;;;3.80;2.33;;;;;;;15.62;100.00;97297.03;5063637;28;20229;-71
2022/05/23 05:38:17;;;;;;;3.17;2.58;;;;;;;15.33;97.74;97289.94;5063746;28;20201;-71
2022/05/23 05:40:45;;;;;;;5.25;2.70;;;;;;;15.55;97.85;97287.75;5063676;28;20078;-71
2022/05/23 05:43:18;;;;;;;4.40;2.92;;;;;;;15.68;97.77;97288.72;5063375;28;20021;-71
2022/05/23 05:45:50;;;;;;;4.55;2.47;;;;;;;15.72;96.33;97284.09;5063601;28;20021;-71
2022/05/23 05:48:16;;;;;;;5.57;2.35;;;;;;;15.89;97.46;97303.34;5063516;28;20343;-71
2022/05/23 05:50:43;;;;;;;3.90;2.63;;;;;;;16.04;96.04;97307.69;5063651;28;20076;-71
2022/05/23 05:53:14;;;;;;;3.38;1.98;;;;;;;16.22;96.09;97317.16;5063619;28;20212;-71
2022/05/23 05:55:41;;;;;;;3.13;2.30;;;;;;;16.25;95.18;97319.63;5063495;28;20347;-71
2022/05/23 05:58:07;;;;;;;2.75;2.15;;;;;;;16.31;96.12;97326.34;5063482;28;20044;-71
2022/05/23 06:00:33;;;;;;;3.30;2.35;;;;;;;16.23;93.78;97340.09;5052614;28;20025;-71
2022/05/23 06:02:58;;;;;;;7.05;2.90;;;;;;;16.10;93.59;97333.84;5043558;28;20048;-71
2022/05/23 06:05:24;;;;;;;2.83;2.20;;;;;;;16.30;95.33;97352.03;5043570;28;20017;-71
2022/05/23 06:13:18;;;;;;;5.72;2.45;;;;;;;16.56;92.33;97348.66;5043440;28;20029;-71
2022/05/23 06:15:45;;;;;;;5.25;2.78;;;;;;;16.74;91.67;97346.63;5043292;28;20030;-71
2022/05/23 06:18:11;;;;;;;4.97;2.67;;;;;;;16.63;91.48;97351.75;5043389;28;20046;-71
2022/05/23 06:20:37;;;;;;;4.38;2.58;;;;;;;16.62;91.58;97342.09;5042221;28;20088;-71
2022/05/23 06:23:03;;;;;;;3.85;2.53;;;;;;;16.57;92.33;97337.06;5042220;28;20096;-71
2022/05/23 06:25:30;;;;;;;7.18;2.50;;;;;;;16.51;92.67;97334.81;5043384;28;20244;-71
2022/05/23 06:27:56;;;;;;;7.57;2.70;;;;;;;16.73;91.41;97329.81;5043295;28;20067;-71
2022/05/23 06:30:22;;;;;;;3.72;2.67;;;;;;;16.66;93.45;97328.53;5043318;28;20029;-71
2022/05/23 06:32:47;;;;;;;3.83;2.55;;;;;;;16.87;92.46;97336.91;5043668;28;20040;-71
2022/05/23 06:35:14;;;;;;;5.82;2.67;;;;;;;17.20;90.62;97340.88;5046695;28;20049;-71
2022/05/23 06:37:41;;;;;;;10.23;3.17;;;;;;;17.72;89.65;97334.75;5046777;28;20343;-71
2022/05/23 06:40:09;;;;;;;5.40;2.85;;;;;;;17.97;87.82;97310.81;5046748;28;20032;-71
2022/05/23 06:42:35;;;;;;;7.05;3.20;;;;;;;17.88;86.25;97322.09;5046667;28;20032;-71
2022/05/23 06:45:02;;;;;;;7.43;3.05;;;;;;;18.23;85.65;97328.47;5046624;28;20021;-71
2022/05/23 06:47:28;;;;;;;4.80;2.83;;;;;;;18.50;84.35;97329.22;5046710;28;20025;-71
2022/05/23 06:49:53;;;;;;;6.70;2.85;;;;;;;18.48;83.28;97324.00;5046495;28;20076;-71
2022/05/23 06:52:19;;;;;;;5.18;2.70;;;;;;;19.02;82.79;97325.31;5046498;28;20040;-71
2022/05/23 06:54:44;;;;;;;5.88;3.10;;;;;;;19.05;80.48;97319.75;5046410;28;20088;-71
2022/05/23 06:57:10;;;;;;;5.35;2.42;;;;;;;19.44;79.86;97315.97;5046385;28;20029;-71
2022/05/23 06:59:36;;;;;;;3.40;2.50;;;;;;;19.71;78.90;97302.38;5046387;28;20025;-71
2022/05/23 07:02:02;;;;;;;5.43;3.00;;;;;;;19.59;79.21;97293.47;5046298;28;20036;-72
2022/05/23 07:12:19;;;;;;;5.30;2.88;;;;;;;20.01;79.73;97306.19;5046399;28;20071;-71
2022/05/23 07:12:41;;;;;;;6.10;2.67;;;;;;;21.15;73.36;97304.94;5046142;28;20029;-72
2022/05/23 07:15:08;;;;;;;4.53;2.67;;;;;;;21.12;72.06;97297.16;5046013;28;20022;-72
2022/05/23 07:17:33;;;;;;;7.07;3.20;;;;;;;21.57;72.67;97297.00;5046093;28;20075;-72
2022/05/23 07:19:58;;;;;;;4.95;2.72;;;;;;;21.39;70.42;97253.00;5046010;28;20122;-72
2022/05/23 07:22:24;;;;;;;4.30;2.45;;;;;;;21.21;71.17;97245.56;5045994;28;20052;-72
2022/05/23 07:24:50;;;;;;;5.70;2.50;;;;;;;20.62;73.83;97244.25;5045879;28;20021;-72
2022/05/23 07:27:15;;;;;;;5.38;2.70;;;;;;;20.06;75.95;97239.88;5045838;28;20021;-72
2022/05/23 07:29:41;;;;;;;3.25;2.58;;;;;;;19.65;76.92;97249.44;5045805;28;20092;-72
2022/05/23 07:32:15;;;;;;;4.97;2.78;;;;;;;19.91;78.35;97272.28;5045809;28;20293;-72
2022/05/23 07:34:41;;;;;;;3.30;2.33;;;;;;;20.52;75.48;97274.50;5045638;28;20235;-72
2022/05/23 07:37:06;;;;;;;4.97;2.78;;;;;;;21.86;70.74;97282.00;5045685;28;20084;-72
2022/05/23 07:39:35;;;;;;;2.92;2.40;;;;;;;21.34;70.65;97274.81;5045572;28;20028;-72
2022/05/23 07:42:02;;;;;;;3.58;1.92;;;;;;;22.06;69.12;97289.16;5064258;28;20028;-72
2022/05/23 07:44:28;;;;;;;2.75;1.90;;;;;;;22.70;66.94;97294.16;5065033;28;20067;-72
2022/05/23 07:46:55;;;;;;;4.53;2.20;;;;;;;23.24;66.65;97296.41;5065683;28;20021;-71
2022/05/23 07:49:20;;;;;;;5.13;2.15;;;;;;;23.21;65.17;97293.97;5065274;28;20037;-72
2022/05/23 07:51:45;;;;;;;2.47;1.92;;;;;;;23.56;64.49;97296.97;5065372;28;20396;-72
2022/05/23 08:02:24;;;;;;;4.28;1.90;;;;;;;24.94;61.47;97294.38;5045010;28;20049;-72
2022/05/23 08:04:50;;;;;;;4.32;1.90;;;;;;;24.73;62.78;97291.09;5045141;28;20028;-72
2022/05/23 08:07:15;;;;;;;4.43;2.00;;;;;;;25.00;60.91;97309.09;5045104;28;20041;-72
2022/05/23 08:09:40;;;;;;;7.22;2.38;;;;;;;24.82;62.49;97306.34;5045057;28;20351;-72
2022/05/23 08:12:06;;;;;;;4.20;1.90;;;;;;;24.77;62.15;97314.00;5044994;28;20021;-72
2022/05/23 08:14:32;;;;;;;3.80;2.20;;;;;;;25.81;61.02;97326.97;5044826;28;20053;-72
2022/05/23 08:16:58;;;;;;;2.55;1.83;;;;;;;26.75;59.09;97324.31;5044881;28;20029;-72
2022/05/23 08:19:24;;;;;;;3.03;2.22;;;;;;;26.93;58.60;97322.38;5044895;28;20052;-72
2022/05/23 08:21:53;;;;;;;2.83;1.70;;;;;;;27.64;56.66;97312.81;5044821;28;20021;-72
2022/05/23 08:24:20;;;;;;;3.72;1.85;;;;;;;27.36;56.30;97303.28;5044770;28;20089;-72
2022/05/23 08:26:45;;;;;;;2.90;2.08;;;;;;;26.48;56.75;97306.41;5044686;28;20092;-72
2022/05/23 08:29:11;;;;;;;4.43;1.70;;;;;;;27.49;56.43;97303.66;5044975;28;20231;-72
2022/05/23 08:31:37;;;;;;;4.25;1.77;;;;;;;27.35;56.55;97304.31;5044648;28;20246;-72
2022/05/23 08:34:04;;;;;;;4.18;1.88;;;;;;;27.29;55.21;97302.28;5044597;28;20229;-72
2022/05/23 08:36:30;;;;;;;7.50;1.60;;;;;;;27.14;55.73;97303.88;5044725;28;20032;-72
2022/05/23 08:38:55;;;;;;;2.60;1.83;;;;;;;26.21;60.89;97308.44;5044501;28;20025;-72
2022/05/23 08:41:32;;;;;;;2.47;1.55;;;;;;;26.68;57.45;97307.94;5044548;28;20404;-72
2022/05/23 08:44:06;;;;;;;6.45;1.50;;;;;;;25.70;60.01;97294.84;5044508;28;20021;-72
2022/05/23 08:46:59;;;;;;;3.90;1.70;;;;;;;25.09;59.99;97295.56;5044421;28;20084;-72
2022/05/23 08:49:45;;;;;;;3.30;1.67;;;;;;;25.26;62.76;97304.66;5044260;28;20049;-72
2022/05/23 08:52:11;;;;;;;3.45;1.77;;;;;;;25.16;64.44;97310.09;5044290;28;20061;-72
2022/05/23 08:54:45;;;;;;;3.97;1.65;;;;;;;24.80;66.30;97300.25;5044176;28;20036;-72
2022/05/23 08:57:25;;;;;;;3.42;1.77;;;;;;;24.79;64.81;97300.41;5042207;28;20055;-71
2022/05/23 08:59:54;;;;;;;2.95;1.80;;;;;;;24.73;64.83;97291.09;5044439;28;20293;-72
2022/05/23 09:02:30;;;;;;;3.95;1.90;;;;;;;25.21;62.47;97291.66;5044063;28;20025;-72
2022/05/23 09:05:03;;;;;;;2.15;1.63;;;;;;;25.34;65.34;97282.41;5044167;28;20025;-71
2022/05/23 09:07:49;;;;;;;3.58;1.75;;;;;;;25.46;62.01;97283.88;5044117;28;20027;-72
2022/05/23 09:10:22;;;;;;;4.53;2.40;;;;;;;24.75;61.46;97272.97;5044040;28;20067;-72
2022/05/23 09:12:53;;;;;;;4.57;1.83;;;;;;;24.62;64.34;97272.41;5044010;28;20021;-72
2022/05/23 09:15:20;;;;;;;6.25;2.03;;;;;;;24.17;66.34;97276.00;5043917;28;20317;-72
2022/05/23 09:17:53;;;;;;;6.25;2.00;;;;;;;23.98;66.07;97263.44;5043965;28;20029;-72
2022/05/23 09:20:54;;;;;;;4.70;2.00;;;;;;;24.00;68.93;97274.91;5043876;28;20071;-72
2022/05/23 09:23:29;;;;;;;4.05;2.53;;;;;;;23.85;68.81;97276.31;5035235;28;20029;-72
2022/05/23 09:25:55;;;;;;;6.32;1.85;;;;;;;24.03;70.30;97269.25;5043950;28;20021;-72
2022/05/23 09:28:21;;;;;;;8.15;1.92;;;;;;;23.89;68.51;97266.97;5043828;28;20056;-72
2022/05/23 09:30:58;;;;;;;3.08;1.77;;;;;;;23.81;72.05;97274.91;5044104;28;20321;-72
2022/05/23 09:33:26;;;;;;;4.88;2.00;;;;;;;23.40;71.55;97267.16;5044100;28;20208;-72
2022/05/23 09:36:12;;;;;;;3.72;2.25;;;;;;;23.47;78.11;97254.03;5043698;28;20105;-72
2022/05/23 09:38:50;;;;;;;4.32;2.35;;;;;;;22.95;77.23;97250.72;5043797;28;20021;-72
2022/05/23 09:49:55;;;;;;;4.53;2.38;;;;;;;22.85;79.93;97247.16;5063475;28;20099;-72
2022/05/23 09:52:31;;;;;;;4.45;2.30;;;;;;;22.59;80.57;97223.69;5063865;28;20209;-72
2022/05/23 09:55:04;;;;;;;3.70;2.38;;;;;;;22.77;79.92;97216.63;5063494;28;20025;-72
2022/05/23 09:57:57;;;;;;;5.95;2.38;;;;;;;22.75;77.14;97213.25;5063595;28;20024;-72
2022/05/23 10:00:23;;;;;;;3.78;2.28;;;;;;;22.96;76.33;97222.03;5059267;28;20033;-72
2022/05/23 10:02:57;;;;;;;6.13;2.63;;;;;;;22.88;79.18;97224.56;5063436;28;20292;-72
2022/05/23 10:05:27;;;;;;;8.65;2.20;;;;;;;22.84;78.26;97213.25;5063474;28;20225;-72
2022/05/23 10:07:55;;;;;;;6.00;2.30;;;;;;;22.96;79.24;97211.28;5064093;28;20025;-72
2022/05/23 10:10:24;;;;;;;8.63;2.40;;;;;;;22.89;78.60;97207.47;5067274;28;20035;-72
2022/05/23 10:12:51;;;;;;;3.20;2.13;;;;;;;22.74;77.26;97209.72;5067512;28;20323;-72
2022/05/23 10:15:30;;;;;;;4.40;2.38;;;;;;;22.73;75.25;97204.50;5067133;28;20217;-71
2022/05/23 10:18:02;;;;;;;5.78;2.40;;;;;;;22.62;77.25;97204.63;5067211;28;20020;-71
2022/05/23 10:20:34;;;;;;;4.85;2.75;;;;;;;22.52;76.76;97196.53;5067138;28;20020;-72
2022/05/23 10:23:04;;;;;;;5.07;2.50;;;;;;;22.46;78.73;97174.78;5067092;28;20032;-72
2022/05/23 10:25:43;;;;;;;4.80;2.38;;;;;;;22.24;79.63;97181.19;5067057;28;20021;-71
2022/05/23 10:28:16;;;;;;;4.70;2.17;;;;;;;22.23;78.77;97189.38;5066974;28;20029;-71
2022/05/23 10:30:56;;;;;;;3.60;2.30;;;;;;;22.12;79.38;97186.81;5066851;28;20045;-71
2022/05/23 10:33:27;;;;;;;5.47;2.88;;;;;;;22.25;80.21;97182.03;5066900;28;20096;-72
2022/05/23 10:36:02;;;;;;;5.88;2.60;;;;;;;22.09;81.34;97160.28;5066734;28;20096;-72
2022/05/23 10:42:11;;;;;;;8.20;2.78;;;;;;;21.90;79.47;97138.75;5066715;28;20020;-72
2022/05/23 10:44:20;;;;;;;6.53;2.47;;;;;;;21.98;80.72;97141.59;5066232;28;20033;-72
2022/05/23 10:46:54;;;;;;;5.97;3.17;;;;;;;21.79;81.43;97169.16;5066590;28;20021;-72
2022/05/23 10:49:33;;;;;;;5.70;2.75;;;;;;;21.62;81.78;97188.50;5065367;28;20112;-72
2022/05/23 10:52:13;;;;;;;5.35;2.90;;;;;;;21.67;83.10;97201.50;5066532;28;20088;-72
2022/05/23 10:54:47;;;;;;;6.63;2.28;;;;;;;21.55;83.02;97207.91;5066432;28;20036;-72
2022/05/23 10:57:35;;;;;;;5.60;2.58;;;;;;;21.59;83.39;97212.00;5066382;28;20024;-72
2022/05/23 11:00:02;;;;;;;5.20;2.83;;;;;;;21.50;83.15;97232.38;5066403;28;20292;-72
2022/05/23 11:02:42;;;;;;;4.32;2.50;;;;;;;21.16;84.63;97228.16;5066224;28;20324;-72
2022/05/23 11:05:16;;;;;;;7.70;3.30;;;;;;;21.22;85.09;97233.88;5066314;28;20063;-71
2022/05/23 11:08:25;;;;;;;6.55;3.05;;;;;;;21.25;85.13;97241.66;5066240;28;20074;-71
2022/05/23 11:11:05;;;;;;;5.88;2.60;;;;;;;21.26;84.04;97235.31;5063179;28;20100;-71
2022/05/23 11:13:42;;;;;;;5.90;3.20;;;;;;;21.43;82.65;97219.66;5066116;28;20029;-71
2022/05/23 11:16:22;;;;;;;5.85;3.10;;;;;;;21.36;83.13;97224.69;5066055;28;20098;-72
2022/05/23 11:19:07;;;;;;;4.72;3.10;;;;;;;21.36;82.95;97223.81;5065928;28;20059;-72
2022/05/23 11:22:01;;;;;;;5.93;3.17;;;;;;;21.18;83.21;97220.88;5065444;28;20249;-71
2022/05/23 11:24:31;;;;;;;6.13;3.25;;;;;;;21.06;83.71;97212.06;5066206;28;20021;-71
2022/05/23 11:35:48;;;;;;;8.40;5.20;;;;;;;20.37;84.23;97216.94;5065642;28;20067;-71
2022/05/23 11:38:19;;;;;;;7.65;4.63;;;;;;;20.61;83.12;97183.75;5065655;28;20021;-71
2022/05/23 11:41:06;;;;;;;9.40;4.68;;;;;;;20.36;83.21;97186.72;5065597;28;20017;-71
2022/05/23 11:43:32;;;;;;;9.50;5.00;;;;;;;20.44;83.86;97181.59;5065569;28;20271;-71
2022/05/23 11:46:05;;;;;;;7.90;5.07;;;;;;;20.70;82.65;97171.44;5065218;28;20084;-71
2022/05/23 11:48:39;;;;;;;7.63;5.03;;;;;;;20.55;82.68;97160.19;5065392;28;20320;-71
2022/05/23 11:51:30;;;;;;;10.30;5.43;;;;;;;20.92;83.44;97153.47;5065370;28;20029;-71
2022/05/23 11:54:32;;;;;;;8.80;4.10;;;;;;;20.97;82.21;97140.59;5064111;28;20091;-71
2022/05/23 11:57:00;;;;;;;7.97;5.07;;;;;;;21.02;81.38;97134.84;5059800;28;20037;-71
2022/05/23 11:59:26;;;;;;;8.40;4.45;;;;;;;21.16;80.59;97116.66;5046804;28;20348;-71
2022/05/23 12:02:07;;;;;;;9.13;4.13;;;;;;;21.42;80.97;97117.06;5045432;28;20021;-72
2022/05/23 12:04:33;;;;;;;8.18;4.30;;;;;;;21.57;80.03;97121.09;5045194;28;20021;-71
2022/05/23 12:06:59;;;;;;;8.10;4.32;;;;;;;21.43;79.95;97124.13;5045194;28;20033;-71
2022/05/23 12:09:28;;;;;;;6.10;3.63;;;;;;;21.70;79.87;97131.59;5045055;28;20045;-72
2022/05/23 12:12:24;;;;;;;6.82;3.90;;;;;;;22.14;80.47;97131.22;5045005;28;20029;-72
2022/05/23 12:14:51;;;;;;;6.15;3.60;;;;;;;21.93;77.46;97138.50;5044833;28;20096;-72
2022/05/23 12:17:28;;;;;;;6.43;3.58;;;;;;;22.31;78.51;97143.97;5044946;28;20276;-72
2022/05/23 12:19:59;;;;;;;9.80;3.63;;;;;;;22.35;77.22;97134.66;5044877;28;20029;-71
2022/05/23 12:22:32;;;;;;;7.57;3.35;;;;;;;22.47;76.99;97134.44;5044871;28;20025;-71
2022/05/23 12:25:07;;;;;;;6.38;3.67;;;;;;;22.62;76.77;97122.31;5044869;28;20252;-72
2022/05/23 12:27:34;;;;;;;6.05;2.97;;;;;;;22.66;75.34;97128.25;5044807;28;20032;-72
2022/05/23 12:30:22;;;;;;;7.72;2.83;;;;;;;22.75;76.15;97112.16;5044751;28;20206;-72
2022/05/23 12:32:51;;;;;;;7.47;2.95;;;;;;;22.72;74.93;97103.56;5044519;28;20029;-72
2022/05/23 12:35:19;;;;;;;7.38;3.13;;;;;;;23.13;74.82;97095.19;5044472;28;20064;-72
2022/05/23 12:38:00;;;;;;;6.40;2.78;;;;;;;23.25;74.01;97094.06;5044507;28;20097;-72